SKCC/CUC METAR and TAF weather

Enter ICAO airport designator
Station Type Date Time Source
SKCC METAR 2019/10/15 19:00 UTC NOAA

SKCC 151900Z 18018G29KT 9999 SCT018 SCT090 28/16 A2993


Station Type Date Time Source
SKCC Decoded METAR 2019/10/15 19:00 UTC NOAA

Cucuta / Camilo Daza, Colombia (SKCC) 07-56N 072-31W 317M
Oct 15, 2019 - 03:00 PM EDT / 2019.10.15 1900 UTC
Wind: from the S (180 degrees) at 21 MPH (18 KT) gusting to 33 MPH (29 KT):0
Visibility: greater than 7 mile(s):0
Sky conditions: partly cloudy
Temperature: 82 F (28 C)
Dew Point: 60 F (16 C)
Relative Humidity: 48%
Pressure (altimeter): 29.93 in. Hg (1013 hPa)
ob: SKCC 151900Z 18018G29KT 9999 SCT018 SCT090 28/16 A2993
cycle: 19

Station Type Date Time Source
SKCC TAF 2019/10/15 18:42 UTC NOAA

TAF TAF SKCC 151630Z 1518/1618 34008KT 9999 SCT023 SCT090
TEMPO 1518/1522 5000 RADZ SCT017CB
TEMPO 1610/1612 4000 BCFG -DZ SCT012 TX33/1518Z TN24/1611Z

Example: see airport list